Time;durP1;ratioP1;P1;durP2;ratioP2;P2;SDS_P1;SDS_P2;PMS_P1;PMS_P2;Temp;Humidity;BMP_temperature;BMP_pressure;BME280_temperature;BME280_humidity;BME280_pressure;Samples;Min_cycle;Max_cycle;Signal;HPM_P1;HPM_P2
2022/06/02 00:01:12;;;;;;;;;;;;;;;10.46;100.00;102018.50;4991412;28;19928;-34
2022/06/02 00:03:42;;;;;;;;;;;;;;;10.42;100.00;102011.78;4992812;28;19926;-36
2022/06/02 00:06:15;;;;;;;;;;;;;;;10.39;100.00;102020.72;4992670;28;19957;-40
2022/06/02 00:08:50;;;;;;;;;;;;;;;10.34;100.00;102024.31;4992000;28;20081;-35
2022/06/02 00:11:26;;;;;;;;;;;;;;;10.28;100.00;102024.53;4992762;28;20399;-40
2022/06/02 00:13:59;;;;;;;;;;;;;;;10.24;100.00;102026.19;4994416;28;19926;-40
2022/06/02 00:16:31;;;;;;;;;;;;;;;10.20;100.00;102023.06;4995890;28;19926;-33
2022/06/02 00:19:03;;;;;;;;;;;;;;;10.16;100.00;102023.88;4996185;28;19921;-36
2022/06/02 00:21:34;;;;;;;;;;;;;;;10.14;100.00;102023.31;4996253;28;19928;-33
2022/06/02 00:24:07;;;;;;;;;;;;;;;10.09;100.00;102029.66;4995678;28;19922;-34
2022/06/02 00:26:40;;;;;;;;;;;;;;;10.04;100.00;102021.25;4996290;28;19925;-39
2022/06/02 00:29:13;;;;;;;;;;;;;;;10.02;100.00;102023.47;4995236;28;19921;-33
2022/06/02 00:31:46;;;;;;;;;;;;;;;9.97;100.00;102032.66;4996266;28;19922;-30
2022/06/02 00:34:17;;;;;;;;;;;;;;;9.94;100.00;102026.78;4996206;28;20399;-33
2022/06/02 00:36:50;;;;;;;;;;;;;;;9.90;100.00;102020.88;4995361;28;19925;-37
2022/06/02 00:39:19;;;;;;;;;;;;;;;9.87;100.00;102021.41;4996055;28;20397;-35
2022/06/02 00:41:55;;;;;;;;;;;;;;;9.83;100.00;102028.63;4995818;28;19933;-38
2022/06/02 00:44:31;;;;;;;;;;;;;;;9.79;100.00;102035.81;4995320;28;19922;-35
2022/06/02 00:47:03;;;;;;;;;;;;;;;9.74;100.00;102038.59;4995908;28;19922;-33
2022/06/02 00:49:36;;;;;;;;;;;;;;;9.71;100.00;102041.06;4995819;28;19922;-31
2022/06/02 00:52:15;;;;;;;;;;;;;;;9.67;100.00;102035.16;4994883;28;19928;-35
2022/06/02 00:57:35;;;;;;;;;;;;;;;9.60;100.00;102035.38;4993842;28;20681;-34
2022/06/02 01:00:11;;;;;;;;;;;;;;;9.57;100.00;102043.44;4995500;28;19929;-35
2022/06/02 01:02:48;;;;;;;;;;;;;;;9.52;100.00;102047.00;4995690;28;19922;-33
2022/06/02 01:05:22;;;;;;;;;;;;;;;9.50;100.00;102042.81;4994751;28;19958;-30
2022/06/02 01:07:52;;;;;;;;;;;;;;;9.45;100.00;102056.69;4995529;28;20339;-31
2022/06/02 01:10:26;;;;;;;;;;;;;;;9.41;100.00;102052.72;4995519;28;20236;-35
2022/06/02 01:13:05;;;;;;;;;;;;;;;9.37;100.00;102057.16;4994631;28;19921;-34
2022/06/02 01:15:41;;;;;;;;;;;;;;;9.33;100.00;102056.84;4995547;28;19932;-32
2022/06/02 01:18:16;;;;;;;;;;;;;;;9.31;100.00;102061.84;4995172;28;20291;-33
2022/06/02 01:20:51;;;;;;;;;;;;;;;9.27;100.00;102061.50;4994810;28;19928;-34
2022/06/02 01:23:36;;;;;;;;;;;;;;;9.25;100.00;102062.88;4995101;28;19922;-32
2022/06/02 01:26:17;;;;;;;;;;;;;;;9.22;100.00;102069.78;4994391;28;19925;-39
2022/06/02 01:28:48;;;;;;;;;;;;;;;9.21;100.00;102062.53;4994970;28;19926;-36
2022/06/02 01:31:24;;;;;;;;;;;;;;;9.20;100.00;102060.00;4995185;28;20298;-33
2022/06/02 01:33:56;;;;;;;;;;;;;;;9.18;100.00;102065.88;4994284;28;20609;-35
2022/06/02 01:36:26;;;;;;;;;;;;;;;9.20;100.00;102062.81;4995292;28;19922;-33
2022/06/02 01:38:58;;;;;;;;;;;;;;;9.18;100.00;102063.09;4994794;28;19932;-35
2022/06/02 01:41:34;;;;;;;;;;;;;;;9.17;100.00;102069.75;4994066;28;19926;-30
2022/06/02 01:44:08;;;;;;;;;;;;;;;9.15;100.00;102065.53;4994756;28;20020;-35
2022/06/02 01:46:43;;;;;;;;;;;;;;;9.13;100.00;102065.81;4994048;28;19929;-40
2022/06/02 01:49:28;;;;;;;;;;;;;;;9.12;100.00;102064.13;4994664;28;19921;-30
2022/06/02 01:52:02;;;;;;;;;;;;;;;9.13;100.00;102074.16;4994674;28;19928;-34
2022/06/02 01:54:37;;;;;;;;;;;;;;;9.16;100.00;102068.06;4993701;28;20028;-35
2022/06/02 01:57:09;;;;;;;;;;;;;;;9.18;100.00;102065.88;4994708;28;20012;-36
2022/06/02 01:59:43;;;;;;;;;;;;;;;9.20;100.00;102065.59;4993315;28;20295;-35
2022/06/02 02:02:15;;;;;;;;;;;;;;;9.21;100.00;102058.91;4993890;28;19922;-33
2022/06/02 02:05:02;;;;;;;;;;;;;;;9.25;100.00;102063.72;4994442;28;19922;-35
2022/06/02 02:07:33;;;;;;;;;;;;;;;9.28;100.00;102060.41;4994498;28;19976;-32
2022/06/02 02:10:09;;;;;;;;;;;;;;;9.30;100.00;102061.00;4994408;28;19922;-34
2022/06/02 02:12:59;;;;;;;;;;;;;;;9.34;100.00;102066.88;4994197;28;20020;-39
2022/06/02 02:15:34;;;;;;;;;;;;;;;9.40;100.00;102071.38;4993810;28;19932;-34
2022/06/02 02:18:18;;;;;;;;;;;;;;;9.47;100.00;102063.69;4994144;28;19968;-36
2022/06/02 02:20:54;;;;;;;;;;;;;;;9.54;100.00;102071.84;4994184;28;19925;-37
2022/06/02 02:23:27;;;;;;;;;;;;;;;9.57;100.00;102077.72;4993424;28;19964;-36
2022/06/02 02:25:55;;;;;;;;;;;;;;;9.60;100.00;102071.59;4993959;28;20367;-33
2022/06/02 02:28:35;;;;;;;;;;;;;;;9.63;100.00;102076.66;4994045;28;19940;-33
2022/06/02 02:31:08;;;;;;;;;;;;;;;9.69;100.00;102069.19;4993455;28;19921;-37
2022/06/02 02:33:44;;;;;;;;;;;;;;;9.73;100.00;102067.56;4993865;28;20032;-30
2022/06/02 02:36:16;;;;;;;;;;;;;;;9.78;100.00;102067.63;4992506;28;20461;-40
2022/06/02 02:38:48;;;;;;;;;;;;;;;9.79;100.00;102074.84;4994275;28;20360;-29
2022/06/02 02:41:20;;;;;;;;;;;;;;;9.80;100.00;102076.53;4993603;28;19930;-32
2022/06/02 02:43:53;;;;;;;;;;;;;;;9.83;100.00;102069.59;4993082;28;20379;-40
2022/06/02 02:46:26;;;;;;;;;;;;;;;9.86;100.00;102069.06;4993809;28;19922;-31
2022/06/02 02:49:00;;;;;;;;;;;;;;;9.88;100.00;102072.44;4993594;28;19945;-36
2022/06/02 02:51:32;;;;;;;;;;;;;;;9.91;100.00;102061.59;4992937;28;20387;-37
2022/06/02 02:54:05;;;;;;;;;;;;;;;9.95;100.00;102062.75;4993476;28;19922;-34
2022/06/02 02:56:36;;;;;;;;;;;;;;;9.99;100.00;102061.09;4993596;28;20025;-35
2022/06/02 02:59:07;;;;;;;;;;;;;;;10.03;100.00;102065.03;4992561;28;19928;-36
2022/06/02 03:01:40;;;;;;;;;;;;;;;10.07;100.00;102059.78;4993478;28;20283;-35
2022/06/02 03:04:19;;;;;;;;;;;;;;;10.12;100.00;102064.56;4992681;28;19929;-38
2022/06/02 03:06:47;;;;;;;;;;;;;;;10.17;100.00;102064.59;4993320;28;19933;-31
2022/06/02 03:09:18;;;;;;;;;;;;;;;10.22;100.00;102070.22;4993478;28;19925;-31
2022/06/02 03:12:03;;;;;;;;;;;;;;;10.24;100.00;102065.22;4992391;28;19955;-37
2022/06/02 03:14:39;;;;;;;;;;;;;;;10.24;100.00;102070.81;4993338;28;20283;-33
2022/06/02 03:17:15;;;;;;;;;;;;;;;10.25;100.00;102066.91;4993150;28;19928;-32
2022/06/02 03:19:46;;;;;;;;;;;;;;;10.26;100.00;102069.44;4992240;28;19993;-38
2022/06/02 03:22:18;;;;;;;;;;;;;;;10.27;100.00;102076.69;4993125;28;19922;-33
2022/06/02 03:24:52;;;;;;;;;;;;;;;10.28;100.00;102071.97;4993383;28;19926;-37
2022/06/02 03:27:25;;;;;;;;;;;;;;;10.27;100.00;102073.91;4993104;28;20016;-37
2022/06/02 03:29:57;;;;;;;;;;;;;;;10.30;100.00;102075.31;4993158;28;19925;-33
2022/06/02 03:32:37;;;;;;;;;;;;;;;10.32;100.00;102078.69;4992215;28;19921;-39
2022/06/02 03:35:09;;;;;;;;;;;;;;;10.33;100.00;102078.44;4993199;28;19928;-34
2022/06/02 03:37:52;;;;;;;;;;;;;;;10.33;100.00;102080.38;4992142;28;20005;-33
2022/06/02 03:40:26;;;;;;;;;;;;;;;10.34;100.00;102073.69;4990416;28;19921;-33
2022/06/02 03:43:00;;;;;;;;;;;;;;;10.37;100.00;102075.09;4990945;28;19922;-35
2022/06/02 03:45:33;;;;;;;;;;;;;;;10.38;100.00;102077.63;4991315;28;19973;-32
2022/06/02 03:48:08;;;;;;;;;;;;;;;10.41;100.00;102081.81;4993020;28;19922;-31
2022/06/02 03:50:44;;;;;;;;;;;;;;;10.41;100.00;102077.06;4995763;28;19929;-36
2022/06/02 03:53:17;;;;;;;;;;;;;;;10.43;100.00;102086.00;4994656;28;19952;-34
2022/06/02 03:55:53;;;;;;;;;;;;;;;10.44;100.00;102079.31;4996887;28;19922;-34
2022/06/02 03:58:28;;;;;;;;;;;;;;;10.46;100.00;102081.84;4996736;28;20371;-33
2022/06/02 04:00:58;;;;;;;;;;;;;;;10.49;100.00;102096.13;4995837;28;19922;-32
2022/06/02 04:03:36;;;;;;;;;;;;;;;10.52;100.00;102089.16;4996447;28;19996;-31
2022/06/02 04:06:10;;;;;;;;;;;;;;;10.54;100.00;102090.56;4996743;28;20279;-32
2022/06/02 04:08:53;;;;;;;;;;;;;;;10.59;100.00;102087.78;4995672;28;19921;-32
2022/06/02 04:11:28;;;;;;;;;;;;;;;10.63;100.00;102096.47;4996120;28;19944;-35
2022/06/02 04:14:03;;;;;;;;;;;;;;;10.65;100.00;102099.84;4996300;28;19932;-31
2022/06/02 04:16:48;;;;;;;;;;;;;;;10.68;100.00;102102.94;4995840;28;19921;-35
2022/06/02 04:22:16;;;;;;;;;;;;;;;10.77;100.00;102097.69;4995105;28;20017;-32
2022/06/02 04:24:50;;;;;;;;;;;;;;;10.86;100.00;102092.44;4995605;28;19928;-30
2022/06/02 04:27:23;;;;;;;;;;;;;;;10.94;100.00;102095.56;4994886;28;19948;-35
2022/06/02 04:29:59;;;;;;;;;;;;;;;11.01;100.00;102106.47;4994384;28;19945;-35
2022/06/02 04:32:32;;;;;;;;;;;;;;;11.05;100.00;102104.81;4994854;28;19928;-33
2022/06/02 04:35:06;;;;;;;;;;;;;;;11.09;100.00;102105.13;4994356;28;19921;-37
2022/06/02 04:37:39;;;;;;;;;;;;;;;11.14;100.00;102111.56;4994030;28;20012;-32
2022/06/02 04:40:11;;;;;;;;;;;;;;;11.20;100.00;102118.00;4994731;28;20268;-30
2022/06/02 04:42:43;;;;;;;;;;;;;;;11.22;100.00;102116.63;4994127;28;19925;-30
2022/06/02 04:45:17;;;;;;;;;;;;;;;11.25;100.00;102115.25;4993718;28;20399;-39
2022/06/02 04:47:51;;;;;;;;;;;;;;;11.25;100.00;102118.88;4994996;28;19925;-30
2022/06/02 04:50:24;;;;;;;;;;;;;;;11.26;100.00;102122.50;4993017;28;20363;-37
2022/06/02 04:52:57;;;;;;;;;;;;;;;11.27;100.00;102116.66;4994698;28;19928;-33
2022/06/02 04:55:32;;;;;;;;;;;;;;;11.32;100.00;102125.06;4994855;28;19934;-30
2022/06/02 04:58:05;;;;;;;;;;;;;;;11.39;100.00;102125.63;4993907;28;20016;-34
2022/06/02 05:00:38;;;;;;;;;;;;;;;11.45;100.00;102134.03;4993853;28;19932;-34
2022/06/02 05:03:11;;;;;;;;;;;;;;;11.50;100.00;102139.66;4994251;28;19961;-32
2022/06/02 05:05:41;;;;;;;;;;;;;;;11.54;100.00;102140.78;4993447;28;19933;-34
2022/06/02 05:08:21;;;;;;;;;;;;;;;11.57;100.00;102140.25;4993635;28;19922;-36
2022/06/02 05:10:52;;;;;;;;;;;;;;;11.60;100.00;102139.66;4993547;28;19929;-34
2022/06/02 05:13:26;;;;;;;;;;;;;;;11.65;100.00;102136.91;4994118;28;19926;-33
2022/06/02 05:16:05;;;;;;;;;;;;;;;11.71;100.00;102144.19;4994314;28;19926;-35
2022/06/02 05:18:46;;;;;;;;;;;;;;;11.77;100.00;102145.94;4993083;28;19926;-33
2022/06/02 05:21:32;;;;;;;;;;;;;;;11.83;100.00;102142.00;4994124;28;19932;-32
2022/06/02 05:24:14;;;;;;;;;;;;;;;11.92;100.00;102151.56;4994072;28;19926;-34
2022/06/02 05:26:57;;;;;;;;;;;;;;;12.00;100.00;102150.16;4993107;28;20811;-38
2022/06/02 05:29:52;;;;;;;;;;;;;;;12.06;100.00;102163.03;4994251;28;20315;-36
2022/06/02 05:32:37;;;;;;;;;;;;;;;12.13;100.00;102154.38;4969623;28;20334;-35
2022/06/02 05:35:25;;;;;;;;;;;;;;;12.20;100.00;102164.16;4993592;28;20284;-37
2022/06/02 05:38:01;;;;;;;;;;;;;;;12.28;100.00;102165.59;4976464;28;19930;-35
2022/06/02 05:40:35;;;;;;;;;;;;;;;12.35;100.00;102166.16;4993013;28;19949;-36
2022/06/02 05:43:13;;;;;;;;;;;;;;;12.43;100.00;102159.97;4993398;28;19928;-33
2022/06/02 05:45:45;;;;;;;;;;;;;;;12.52;100.00;102160.28;4993187;28;19925;-34
2022/06/02 05:48:21;;;;;;;;;;;;;;;12.62;100.00;102168.66;4993658;28;19922;-32
2022/06/02 05:50:52;;;;;;;;;;;;;;;12.70;100.00;102166.13;4993517;28;20315;-31
2022/06/02 05:53:28;;;;;;;;;;;;;;;12.75;100.00;102168.94;4993203;28;19922;-38
2022/06/02 05:56:04;;;;;;;;;;;;;;;12.78;100.00;102164.75;4993461;28;19921;-35
2022/06/02 05:58:39;;;;;;;;;;;;;;;12.82;100.00;102179.00;4993655;28;19932;-36
2022/06/02 06:01:12;;;;;;;;;;;;;;;12.86;100.00;102175.34;4992457;28;20036;-39
2022/06/02 06:03:50;;;;;;;;;;;;;;;12.94;100.00;102182.34;4993071;28;20190;-36
2022/06/02 06:06:25;;;;;;;;;;;;;;;13.00;100.00;102192.41;4992781;28;20038;-34
2022/06/02 06:09:01;;;;;;;;;;;;;;;13.03;100.00;102189.06;4992538;28;20020;-35
2022/06/02 06:11:41;;;;;;;;;;;;;;;13.08;100.00;102189.03;4992014;28;19945;-32
2022/06/02 06:14:17;;;;;;;;;;;;;;;13.11;100.00;102189.31;4992080;28;19926;-37
2022/06/02 06:16:49;;;;;;;;;;;;;;;13.17;100.00;102183.75;4992943;28;19967;-33
2022/06/02 06:19:46;;;;;;;;;;;;;;;13.26;100.00;102196.03;4992891;28;19922;-35
2022/06/02 06:22:32;;;;;;;;;;;;;;;13.40;100.00;102181.13;4991326;28;20033;-34
2022/06/02 06:25:04;;;;;;;;;;;;;;;13.59;100.00;102191.72;4992387;28;19922;-32
2022/06/02 06:27:42;;;;;;;;;;;;;;;13.74;99.50;102191.66;4992724;28;20288;-30
2022/06/02 06:30:13;;;;;;;;;;;;;;;13.83;97.80;102187.09;4992079;28;19926;-31
2022/06/02 06:32:47;;;;;;;;;;;;;;;14.15;98.48;102192.25;4992966;28;19921;-28
2022/06/02 06:35:32;;;;;;;;;;;;;;;14.73;99.15;102193.25;4992081;28;19926;-33
2022/06/02 06:38:12;;;;;;;;;;;;;;;15.49;96.18;102200.03;4992570;28;20621;-32
2022/06/02 06:40:55;;;;;;;;;;;;;;;16.28;93.33;102197.56;4992084;28;19921;-31
2022/06/02 06:43:30;;;;;;;;;;;;;;;17.08;89.90;102192.56;4988981;28;19922;-32
2022/06/02 06:46:01;;;;;;;;;;;;;;;17.70;84.55;102197.84;4992418;28;20295;-35
2022/06/02 06:48:32;;;;;;;;;;;;;;;18.24;81.16;102194.91;4992496;28;19956;-34
2022/06/02 06:51:02;;;;;;;;;;;;;;;18.93;78.39;102200.28;4991878;28;19921;-32
2022/06/02 06:53:46;;;;;;;;;;;;;;;19.54;72.83;102196.63;4992356;28;19932;-34
2022/06/02 06:56:16;;;;;;;;;;;;;;;20.13;68.93;102197.09;4991230;28;19968;-36
2022/06/02 06:58:51;;;;;;;;;;;;;;;20.62;66.76;102198.63;4992243;28;19929;-32
2022/06/02 07:01:24;;;;;;;;;;;;;;;21.02;61.57;102189.88;4991895;28;19932;-40
2022/06/02 07:03:56;;;;;;;;;;;;;;;21.09;59.91;102197.88;4991778;28;19926;-35
2022/06/02 07:06:31;;;;;;;;;;;;;;;21.28;59.33;102202.03;4992683;28;19932;-37
2022/06/02 07:09:03;;;;;;;;;;;;;;;21.76;57.27;102200.81;4992029;28;19929;-38
2022/06/02 07:14:23;;;;;;;;;;;;;;;22.38;54.31;102207.78;4991976;28;20392;-31
2022/06/02 07:16:55;;;;;;;;;;;;;;;22.73;53.46;102208.31;4991549;28;19926;-38
2022/06/02 07:19:29;;;;;;;;;;;;;;;23.15;51.51;102217.63;4991258;28;19928;-39
2022/06/02 07:22:02;;;;;;;;;;;;;;;23.37;50.82;102214.34;4991959;28;19922;-38
2022/06/02 07:24:45;;;;;;;;;;;;;;;23.43;46.84;102218.63;4991546;28;19976;-34
2022/06/02 07:27:18;;;;;;;;;;;;;;;23.17;48.89;102218.13;4991619;28;19925;-38
2022/06/02 07:29:56;;;;;;;;;;;;;;;23.01;49.82;102215.91;4991998;28;19921;-37
2022/06/02 07:32:51;;;;;;;;;;;;;;;23.25;50.55;102225.72;4986309;28;19959;-37
2022/06/02 07:35:32;;;;;;;;;;;;;;;23.52;47.65;102222.25;4967640;28;20406;-40
2022/06/02 07:38:02;;;;;;;;;;;;;;;23.44;46.78;102225.97;4991720;28;19930;-31
2022/06/02 07:40:38;;;;;;;;;;;;;;;23.28;48.44;102231.53;4991466;28;19921;-37
2022/06/02 07:43:16;;;;;;;;;;;;;;;23.43;48.17;102232.88;4992862;28;19922;-31
2022/06/02 07:45:51;;;;;;;;;;;;;;;23.64;46.95;102227.09;4991394;28;19968;-32
2022/06/02 07:48:27;;;;;;;;;;;;;;;24.00;47.11;102226.25;4991369;28;19957;-32
2022/06/02 07:51:01;;;;;;;;;;;;;;;24.51;46.82;102227.53;4992439;28;20283;-31
2022/06/02 07:53:33;;;;;;;;;;;;;;;25.03;45.03;102233.16;4991031;28;19930;-31
2022/06/02 07:56:06;;;;;;;;;;;;;;;25.56;42.74;102232.97;4992934;28;19922;-34
2022/06/02 07:58:40;;;;;;;;;;;;;;;26.03;42.05;102235.81;4992438;28;19922;-30
2022/06/02 08:01:13;;;;;;;;;;;;;;;26.38;39.43;102236.66;4991355;28;19921;-39
2022/06/02 08:03:53;;;;;;;;;;;;;;;26.70;39.25;102243.13;4992311;28;20069;-43
2022/06/02 08:06:26;;;;;;;;;;;;;;;26.97;39.05;102246.16;4991867;28;19926;-31
2022/06/02 08:09:27;;;;;;;;;;;;;;;27.12;38.21;102250.97;4991736;28;19925;-37
2022/06/02 08:11:57;;;;;;;;;;;;;;;27.29;38.40;102249.66;4992134;28;19987;-31
2022/06/02 08:14:28;;;;;;;;;;;;;;;27.14;36.65;102256.31;4991385;28;20016;-31
2022/06/02 08:17:00;;;;;;;;;;;;;;;26.64;38.44;102258.09;4991973;28;19922;-31
2022/06/02 08:19:37;;;;;;;;;;;;;;;26.71;38.56;102264.81;4991167;28;19928;-30
2022/06/02 08:22:07;;;;;;;;;;;;;;;27.07;38.09;102254.97;4991571;28;19922;-32
2022/06/02 08:24:36;;;;;;;;;;;;;;;27.36;38.20;102261.28;4992622;28;19964;-30
2022/06/02 08:27:28;;;;;;;;;;;;;;;27.69;37.96;102261.50;4991355;28;20387;-31
2022/06/02 08:30:02;;;;;;;;;;;;;;;28.07;37.38;102274.00;4980101;28;20012;-30
2022/06/02 08:32:38;;;;;;;;;;;;;;;28.36;35.17;102270.41;4992132;28;19936;-33
2022/06/02 08:35:12;;;;;;;;;;;;;;;28.57;35.60;102266.19;4993114;28;19950;-34
2022/06/02 08:37:46;;;;;;;;;;;;;;;28.88;35.21;102265.81;4996167;28;19930;-34
2022/06/02 08:40:45;;;;;;;;;;;;;;;29.14;34.02;102267.78;4994926;28;19949;-32
2022/06/02 08:43:26;;;;;;;;;;;;;;;29.06;33.32;102271.78;4973197;28;19922;-36
2022/06/02 08:46:09;;;;;;;;;;;;;;;28.87;33.79;102272.78;4995387;28;19930;-31
2022/06/02 08:48:59;;;;;;;;;;;;;;;28.88;33.60;102277.31;4994580;28;19925;-33
2022/06/02 08:51:41;;;;;;;;;;;;;;;28.53;33.60;102288.28;4995647;28;19926;-39
2022/06/02 08:54:39;;;;;;;;;;;;;;;28.13;35.34;102289.72;4995631;28;19985;-32
2022/06/02 08:57:14;;;;;;;;;;;;;;;28.29;35.49;102290.41;4994944;28;19921;-32
2022/06/02 09:00:00;;;;;;;;;;;;;;;28.56;34.99;102291.22;4995455;28;20383;-35
2022/06/02 09:02:52;;;;;;;;;;;;;;;28.63;34.67;102299.09;4995309;28;19976;-36
2022/06/02 09:05:37;;;;;;;;;;;;;;;28.61;34.39;102299.47;4957875;28;19932;-33
2022/06/02 09:08:17;;;;;;;;;;;;;;;28.34;33.79;102297.88;4995033;28;19949;-41
2022/06/02 09:11:03;;;;;;;;;;;;;;;28.18;34.41;102312.31;4994730;28;19922;-31
2022/06/02 09:13:49;;;;;;;;;;;;;;;27.95;33.49;102303.75;4995269;28;19921;-32
2022/06/02 09:16:20;;;;;;;;;;;;;;;27.57;34.18;102306.72;4994823;28;19944;-42
2022/06/02 09:19:09;;;;;;;;;;;;;;;27.49;36.89;102320.09;4994510;28;20315;-29
2022/06/02 09:21:55;;;;;;;;;;;;;;;27.56;36.08;102328.00;4993918;28;19933;-32
2022/06/02 09:24:27;;;;;;;;;;;;;;;27.83;35.91;102317.47;4994296;28;19921;-40
2022/06/02 09:27:03;;;;;;;;;;;;;;;28.10;35.44;102316.31;4995133;28;19932;-35
2022/06/02 09:29:36;;;;;;;;;;;;;;;27.96;34.98;102319.78;4995224;28;19930;-31
2022/06/02 09:32:09;;;;;;;;;;;;;;;27.86;34.59;102326.13;4994092;28;19932;-40
2022/06/02 09:34:55;;;;;;;;;;;;;;;27.85;35.85;102317.91;4994889;28;20025;-30
2022/06/02 09:37:44;;;;;;;;;;;;;;;27.84;32.34;102331.41;4994905;28;19956;-31
2022/06/02 09:40:34;;;;;;;;;;;;;;;27.90;35.96;102329.06;4994728;28;20383;-33
2022/06/02 09:43:24;;;;;;;;;;;;;;;28.31;34.92;102336.78;4994658;28;19921;-36
2022/06/02 09:46:02;;;;;;;;;;;;;;;28.74;34.74;102328.81;4993555;28;20020;-35
2022/06/02 09:48:57;;;;;;;;;;;;;;;29.12;33.48;102334.31;4994412;28;19929;-33
2022/06/02 09:51:43;;;;;;;;;;;;;;;28.96;30.29;102335.72;4993432;28;19921;-35
2022/06/02 09:54:20;;;;;;;;;;;;;;;28.38;34.12;102342.63;4993639;28;19932;-32
2022/06/02 09:57:55;;;;;;;;;;;;;;;28.40;35.25;102339.38;4994252;28;19929;-35
2022/06/02 10:00:02;;;;;;;;;;;;;;;28.62;33.37;102337.66;4993133;28;19922;-34
2022/06/02 10:02:40;;;;;;;;;;;;;;;28.60;33.33;102325.72;4994216;28;19929;-38
2022/06/02 10:05:18;;;;;;;;;;;;;;;28.77;34.28;102333.81;4994321;28;19926;-31
2022/06/02 10:08:00;;;;;;;;;;;;;;;29.07;32.98;102336.69;4993356;28;19922;-31
2022/06/02 10:10:49;;;;;;;;;;;;;;;29.40;33.12;102327.25;4994195;28;19982;-31
2022/06/02 10:13:35;;;;;;;;;;;;;;;29.61;31.54;102321.75;4990528;28;19928;-35
2022/06/02 10:16:24;;;;;;;;;;;;;;;29.74;32.67;102326.00;4993943;28;20374;-33
2022/06/02 10:19:19;;;;;;;;;;;;;;;29.93;30.71;102316.31;4994330;28;20017;-41
2022/06/02 10:21:54;;;;;;;;;;;;;;;30.03;32.24;102318.47;4969792;28;20282;-35
2022/06/02 10:24:34;;;;;;;;;;;;;;;30.15;30.71;102328.88;4993647;28;19926;-33
2022/06/02 10:27:08;;;;;;;;;;;;;;;30.25;30.31;102327.28;4992161;28;20411;-33
2022/06/02 10:30:03;;;;;;;;;;;;;;;30.26;31.67;102320.31;4993927;28;20286;-32
2022/06/02 10:32:53;;;;;;;;;;;;;;;30.21;30.68;102315.75;4970132;28;19948;-35
2022/06/02 10:35:36;;;;;;;;;;;;;;;30.17;30.37;102314.91;4992952;28;19922;-37
2022/06/02 10:38:19;;;;;;;;;;;;;;;30.12;30.78;102318.97;4993810;28;20426;-38
2022/06/02 10:41:11;;;;;;;;;;;;;;;30.12;31.28;102312.38;4993625;28;19932;-35
2022/06/02 10:43:50;;;;;;;;;;;;;;;30.26;31.71;102306.72;4983340;28;19922;-31
2022/06/02 10:46:37;;;;;;;;;;;;;;;30.36;31.10;102306.00;4993215;28;19922;-36
2022/06/02 10:49:14;;;;;;;;;;;;;;;30.07;29.91;102298.34;4992755;28;20371;-31
2022/06/02 10:52:12;;;;;;;;;;;;;;;29.64;32.32;102305.75;4992332;28;20246;-43
2022/06/02 10:54:51;;;;;;;;;;;;;;;29.51;32.12;102304.38;4993271;28;19921;-36
2022/06/02 10:57:33;;;;;;;;;;;;;;;29.61;31.95;102310.22;4992209;28;20338;-32
2022/06/02 11:00:07;;;;;;;;;;;;;;;29.71;32.11;102306.66;4992583;28;19921;-34
2022/06/02 11:03:03;;;;;;;;;;;;;;;29.85;31.46;102308.00;4992290;28;20287;-41
2022/06/02 11:05:49;;;;;;;;;;;;;;;29.92;31.46;102303.16;4993403;28;20375;-36
2022/06/02 11:08:43;;;;;;;;;;;;;;;29.92;30.92;102308.06;4993459;28;19929;-31
2022/06/02 11:11:36;;;;;;;;;;;;;;;29.89;31.49;102312.56;4992776;28;19928;-34
2022/06/02 11:14:23;;;;;;;;;;;;;;;29.78;32.09;102321.09;4993361;28;19922;-32
2022/06/02 11:17:09;;;;;;;;;;;;;;;29.65;31.89;102322.59;4992050;28;19932;-31
2022/06/02 11:19:54;;;;;;;;;;;;;;;29.67;31.02;102317.28;4993286;28;20355;-31
2022/06/02 11:22:29;;;;;;;;;;;;;;;29.68;32.26;102315.25;4993012;28;20417;-34
2022/06/02 11:25:25;;;;;;;;;;;;;;;29.68;30.44;102312.34;4991833;28;19949;-34
2022/06/02 11:28:22;;;;;;;;;;;;;;;29.60;30.78;102308.56;4993405;28;19928;-43
2022/06/02 11:30:56;;;;;;;;;;;;;;;29.50;32.14;102309.31;4991498;28;20383;-40
2022/06/02 11:33:38;;;;;;;;;;;;;;;29.54;32.11;102312.22;4992921;28;19922;-39
2022/06/02 11:36:21;;;;;;;;;;;;;;;29.72;31.53;102313.22;4992927;28;19928;-39
2022/06/02 11:39:10;;;;;;;;;;;;;;;29.71;31.28;102302.94;4992137;28;20397;-31
2022/06/02 11:41:41;;;;;;;;;;;;;;;29.73;31.38;102309.13;4992839;28;19922;-31
2022/06/02 11:44:13;;;;;;;;;;;;;;;29.70;31.72;102307.88;4992671;28;20040;-33
2022/06/02 11:46:59;;;;;;;;;;;;;;;29.74;30.86;102300.09;4992054;28;19922;-41
2022/06/02 11:49:37;;;;;;;;;;;;;;;29.68;31.17;102292.22;4992690;28;19925;-38
2022/06/02 11:52:22;;;;;;;;;;;;;;;29.60;32.21;102294.19;4990788;28;19926;-40
2022/06/02 11:55:04;;;;;;;;;;;;;;;29.62;32.03;102300.38;4992426;28;19921;-33
2022/06/02 11:57:46;;;;;;;;;;;;;;;29.59;32.30;102300.34;4992200;28;19925;-36
2022/06/02 12:00:22;;;;;;;;;;;;;;;29.55;31.67;102288.00;4988936;28;19932;-41
2022/06/02 12:03:15;;;;;;;;;;;;;;;29.54;31.99;102286.34;4989996;28;19926;-40
2022/06/02 12:06:09;;;;;;;;;;;;;;;29.42;31.13;102279.63;4991710;28;20398;-32
2022/06/02 12:08:53;;;;;;;;;;;;;;;29.41;32.13;102283.72;4988218;28;19928;-41
2022/06/02 12:11:27;;;;;;;;;;;;;;;29.56;31.11;102278.13;4996451;28;19925;-44
2022/06/02 12:14:06;;;;;;;;;;;;;;;29.43;31.72;102281.28;4995325;28;19952;-32
2022/06/02 12:16:45;;;;;;;;;;;;;;;29.30;31.81;102284.81;4994762;28;20020;-36
2022/06/02 12:19:25;;;;;;;;;;;;;;;29.30;32.35;102279.88;4995945;28;19921;-31
2022/06/02 12:21:59;;;;;;;;;;;;;;;29.43;31.99;102289.91;4996125;28;19922;-33
2022/06/02 12:24:57;;;;;;;;;;;;;;;29.56;32.36;102278.97;4996274;28;19922;-32
2022/06/02 12:27:42;;;;;;;;;;;;;;;29.65;31.64;102279.44;4995238;28;19922;-42
2022/06/02 12:30:18;;;;;;;;;;;;;;;29.58;31.30;102278.53;4996433;28;19937;-31
2022/06/02 12:33:10;;;;;;;;;;;;;;;29.51;32.02;102278.50;4995871;28;20013;-33
2022/06/02 12:35:51;;;;;;;;;;;;;;;29.37;32.32;102282.03;4984043;28;19932;-35
2022/06/02 12:38:30;;;;;;;;;;;;;;;29.32;32.17;102276.63;4995845;28;20385;-31
2022/06/02 12:41:13;;;;;;;;;;;;;;;29.35;31.46;102275.84;4995355;28;19944;-36
2022/06/02 12:44:00;;;;;;;;;;;;;;;29.30;31.79;102273.31;4987220;28;19951;-32
2022/06/02 12:46:38;;;;;;;;;;;;;;;29.07;31.71;102270.56;4995767;28;19921;-35
2022/06/02 12:49:26;;;;;;;;;;;;;;;28.87;31.73;102272.78;4994681;28;19928;-37
2022/06/02 12:52:22;;;;;;;;;;;;;;;28.78;32.52;102269.34;4992462;28;19939;-33
2022/06/02 12:55:04;;;;;;;;;;;;;;;28.82;32.95;102270.25;4971404;28;19921;-33
2022/06/02 12:57:52;;;;;;;;;;;;;;;28.80;32.52;102275.56;4995643;28;20022;-37
2022/06/02 13:00:40;;;;;;;;;;;;;;;28.78;31.54;102266.47;4995411;28;19926;-38
2022/06/02 13:03:27;;;;;;;;;;;;;;;28.69;32.33;102274.56;4978044;28;19926;-39
2022/06/02 13:06:12;;;;;;;;;;;;;;;28.60;32.92;102271.97;4995466;28;20024;-32
2022/06/02 13:09:01;;;;;;;;;;;;;;;28.41;32.80;102267.19;4973968;28;19957;-34
2022/06/02 13:11:52;;;;;;;;;;;;;;;28.36;33.49;102270.41;4979646;28;19922;-31
2022/06/02 13:14:36;;;;;;;;;;;;;;;28.33;33.76;102273.22;4994835;28;19922;-32
2022/06/02 13:17:13;;;;;;;;;;;;;;;28.34;33.41;102274.88;4994194;28;19957;-38
2022/06/02 13:20:04;;;;;;;;;;;;;;;28.32;33.07;102268.72;4994931;28;19964;-32
2022/06/02 13:22:59;;;;;;;;;;;;;;;28.27;33.56;102275.59;4985093;28;19921;-34
2022/06/02 13:25:42;;;;;;;;;;;;;;;28.21;33.71;102271.41;4994859;28;20360;-36
2022/06/02 13:28:32;;;;;;;;;;;;;;;28.22;34.07;102272.22;4995136;28;19926;-39
2022/06/02 13:31:26;;;;;;;;;;;;;;;28.23;33.51;102271.00;4994277;28;19929;-31
2022/06/02 13:34:18;;;;;;;;;;;;;;;28.21;33.87;102285.75;4995025;28;20315;-35
2022/06/02 13:36:59;;;;;;;;;;;;;;;28.11;34.36;102280.66;4994890;28;20257;-31
2022/06/02 13:39:41;;;;;;;;;;;;;;;28.11;34.38;102277.78;4994204;28;19921;-33